This is the latest recevied weather packets stored in our database for station/object S57PNX-8. If no packets are shown the sender has not sent any weather packets the latest 10 day(s).
| Time | Temp. | Humidity | Pressure | Rain* | Wind** | Luminosity | Snow |
|---|---|---|---|---|---|---|---|
| 1778171094 | 14.44° C | 80% | 1020 hPa | - | - | - | - |
| 1778170195 | 16.11° C | 71% | 1019.8 hPa | - | - | - | - |
| 1778169294 | 17.22° C | 66% | 1019.6 hPa | - | - | - | - |
| 1778168394 | 16.11° C | 78% | 1019.6 hPa | - | - | - | - |
| 1778167492 | 15.56° C | 82% | 1019.2 hPa | - | - | - | - |
| 1778166594 | 14.44° C | 92% | 1019.2 hPa | - | - | - | - |
| 1778165692 | 13.89° C | 100% | 1019 hPa | - | - | - | - |
| 1778164793 | 13.33° C | 100% | 1019.2 hPa | - | - | - | - |
| 1778163893 | 13.89° C | 100% | 1019 hPa | - | - | - | - |
| 1778162993 | 13.89° C | 100% | 1019.2 hPa | - | - | - | - |
| 1778162094 | 13.89° C | 100% | 1019.1 hPa | - | - | - | - |
| 1778161195 | 13.89° C | 100% | 1019.1 hPa | - | - | - | - |
| 1778160296 | 14.44° C | 100% | 1019 hPa | - | - | - | - |
| 1778159397 | 14.44° C | 100% | 1019.2 hPa | - | - | - | - |
| 1778158492 | 13.89° C | 100% | 1019.2 hPa | - | - | - | - |
| 1778157591 | 13.33° C | 100% | 1019.2 hPa | - | - | - | - |
| 1778156691 | 13.33° C | 97% | 1019.3 hPa | - | - | - | - |
| 1778155791 | 13.33° C | 92% | 1019.3 hPa | - | - | - | - |
| 1778154890 | 13.33° C | 87% | 1019.4 hPa | - | - | - | - |
| 1778153991 | 13.33° C | 96% | 1019.4 hPa | - | - | - | - |
| 1778153090 | 12.78° C | 99% | 1019.5 hPa | - | - | - | - |
| 1778152191 | 12.78° C | 95% | 1019.5 hPa | - | - | - | - |
| 1778151289 | 12.78° C | 100% | 1019.6 hPa | - | - | - | - |
| 1778150391 | 12.22° C | 100% | 1019.8 hPa | - | - | - | - |
| 1778149491 | 12.22° C | 100% | 1019.7 hPa | - | - | - | - |
* Rain since midnight (hover to see other rain measurements)
** Current wind speed in m/s (hover to see current wind gust speed)